NOZ4DY ENGM-EPKK
Flight info
| Callsign | NOZ4DY |
|---|---|
| Flight time | 1h 44m |
| Altitude | 31000 |
| Route | OKSAT L996 GETPA/N0446F390 L996 KELIN DCT NEXIL DCT ROE DCT AMROR N983 POLON N133 NEGUV M66 KUKAM |
| Aircraft | B38M/M-SDE1FGHILORVWXY/HB1 |
Departure
| Time | 2026-05-01 10:03 |
|---|---|
| Airport | Oslo-Gardermoen International Airport (ENGM) |
Arrival
| Time | 2026-05-01 11:48 |
|---|---|
| Airport | Kraków John Paul II International Airport (EPKK) |
| Time | Latitude | Longitude | Altitude | Speed | Heading |
|---|---|---|---|---|---|
| 2026-05-01 09:39 | 60.19401 | 11.10652 | 694 ft | 0 kts | 196° |
| 2026-05-01 09:40 | 60.19401 | 11.10653 | 694 ft | 0 kts | 196° |
| 2026-05-01 09:53 | 60.19415 | 11.10660 | 689 ft | 4 kts | 192° |
| 2026-05-01 09:53 | 60.19441 | 11.10667 | 694 ft | 4 kts | 180° |
| 2026-05-01 09:53 | 60.19459 | 11.10665 | 694 ft | 4 kts | 170° |
| 2026-05-01 09:53 | 60.19484 | 11.10649 | 686 ft | 4 kts | 150° |
| 2026-05-01 09:54 | 60.19509 | 11.10601 | 687 ft | 4 kts | 112° |
| 2026-05-01 09:54 | 60.19511 | 11.10588 | 686 ft | 0 kts | 106° |
| 2026-05-01 09:57 | 60.19507 | 11.10614 | 686 ft | 4 kts | 104° |
| 2026-05-01 09:57 | 60.19495 | 11.10694 | 691 ft | 9 kts | 105° |
| 2026-05-01 09:57 | 60.19473 | 11.10851 | 691 ft | 13 kts | 106° |
| 2026-05-01 09:57 | 60.19447 | 11.11031 | 692 ft | 12 kts | 106° |
| 2026-05-01 09:58 | 60.19420 | 11.11216 | 686 ft | 15 kts | 106° |
| 2026-05-01 09:58 | 60.19381 | 11.11398 | 690 ft | 15 kts | 147° |
| 2026-05-01 09:58 | 60.19277 | 11.11367 | 693 ft | 17 kts | 196° |
| 2026-05-01 09:58 | 60.19174 | 11.11308 | 694 ft | 15 kts | 196° |
| 2026-05-01 09:59 | 60.19070 | 11.11247 | 694 ft | 14 kts | 196° |
| 2026-05-01 09:59 | 60.18961 | 11.11184 | 686 ft | 19 kts | 196° |
| 2026-05-01 09:59 | 60.18823 | 11.11104 | 692 ft | 20 kts | 196° |
| 2026-05-01 09:59 | 60.18690 | 11.11028 | 689 ft | 19 kts | 196° |
| 2026-05-01 10:00 | 60.18568 | 11.10957 | 684 ft | 18 kts | 196° |
| 2026-05-01 10:00 | 60.18461 | 11.10896 | 689 ft | 15 kts | 196° |
| 2026-05-01 10:00 | 60.18357 | 11.10836 | 688 ft | 17 kts | 196° |
| 2026-05-01 10:00 | 60.18242 | 11.10770 | 683 ft | 17 kts | 196° |
| 2026-05-01 10:01 | 60.18127 | 11.10703 | 682 ft | 17 kts | 196° |
| 2026-05-01 10:01 | 60.18020 | 11.10641 | 689 ft | 16 kts | 196° |
| 2026-05-01 10:01 | 60.17908 | 11.10576 | 690 ft | 17 kts | 196° |
| 2026-05-01 10:01 | 60.17801 | 11.10515 | 692 ft | 15 kts | 196° |
| 2026-05-01 10:02 | 60.17714 | 11.10540 | 690 ft | 10 kts | 120° |
| 2026-05-01 10:02 | 60.17694 | 11.10679 | 691 ft | 12 kts | 102° |
| 2026-05-01 10:02 | 60.17713 | 11.10844 | 694 ft | 13 kts | 44° |
| 2026-05-01 10:02 | 60.17774 | 11.10894 | 694 ft | 0 kts | 15° |
| 2026-05-01 10:03 | 60.17795 | 11.10905 | 692 ft | 14 kts | 15° |
| 2026-05-01 10:03 | 60.18154 | 11.11113 | 694 ft | 98 kts | 16° |
| 2026-05-01 10:03 | 60.19065 | 11.11640 | 719 ft | 171 kts | 16° |
| 2026-05-01 10:03 | 60.20268 | 11.12373 | 1388 ft | 190 kts | 17° |
| 2026-05-01 10:04 | 60.21578 | 11.13605 | 1930 ft | 214 kts | 38° |
| 2026-05-01 10:04 | 60.22481 | 11.15778 | 2787 ft | 216 kts | 62° |
| 2026-05-01 10:04 | 60.22839 | 11.18936 | 3374 ft | 246 kts | 92° |
| 2026-05-01 10:04 | 60.22653 | 11.22369 | 4372 ft | 257 kts | 98° |
| 2026-05-01 10:05 | 60.22578 | 11.26002 | 5445 ft | 264 kts | 90° |
| 2026-05-01 10:05 | 60.22631 | 11.29780 | 6451 ft | 276 kts | 89° |
| 2026-05-01 10:05 | 60.22773 | 11.33801 | 6805 ft | 296 kts | 81° |
| 2026-05-01 10:05 | 60.23279 | 11.37856 | 7061 ft | 301 kts | 74° |
| 2026-05-01 10:06 | 60.23868 | 11.41824 | 8108 ft | 300 kts | 73° |
| 2026-05-01 10:06 | 60.24470 | 11.45959 | 9070 ft | 307 kts | 73° |
| 2026-05-01 10:06 | 60.24872 | 11.50182 | 10103 ft | 311 kts | 90° |
| 2026-05-01 10:06 | 60.24508 | 11.54478 | 11048 ft | 314 kts | 115° |
| 2026-05-01 10:07 | 60.23353 | 11.58154 | 11807 ft | 316 kts | 140° |
| 2026-05-01 10:07 | 60.21563 | 11.60588 | 12731 ft | 306 kts | 165° |
| 2026-05-01 10:07 | 60.19500 | 11.61376 | 13575 ft | 299 kts | 187° |
| 2026-05-01 10:07 | 60.17427 | 11.61322 | 14423 ft | 307 kts | 183° |
| 2026-05-01 10:08 | 60.13270 | 11.60509 | 15243 ft | 298 kts | 215° |
| 2026-05-01 10:08 | 60.11414 | 11.58354 | 15609 ft | 319 kts | 212° |
| 2026-05-01 10:08 | 60.09360 | 11.56406 | 15968 ft | 338 kts | 210° |
| 2026-05-01 10:09 | 60.07146 | 11.54536 | 16479 ft | 350 kts | 207° |
| 2026-05-01 10:09 | 60.04861 | 11.52756 | 17303 ft | 352 kts | 206° |
| 2026-05-01 10:09 | 60.02583 | 11.51057 | 18024 ft | 357 kts | 206° |
| 2026-05-01 10:09 | 60.00228 | 11.49342 | 18750 ft | 360 kts | 206° |
| 2026-05-01 10:10 | 59.97862 | 11.47647 | 19383 ft | 363 kts | 205° |
| 2026-05-01 10:10 | 59.95449 | 11.46011 | 19999 ft | 370 kts | 200° |
| 2026-05-01 10:10 | 59.90192 | 11.46910 | 21268 ft | 403 kts | 162° |
| 2026-05-01 10:11 | 59.87766 | 11.49898 | 21872 ft | 416 kts | 148° |
| 2026-05-01 10:11 | 59.85427 | 11.53198 | 22429 ft | 417 kts | 152° |
| 2026-05-01 10:11 | 59.82958 | 11.56321 | 23022 ft | 420 kts | 154° |
| 2026-05-01 10:11 | 59.80441 | 11.59368 | 23593 ft | 424 kts | 154° |
| 2026-05-01 10:12 | 59.77924 | 11.62351 | 24078 ft | 427 kts | 155° |
| 2026-05-01 10:12 | 59.75350 | 11.65361 | 24568 ft | 430 kts | 155° |
| 2026-05-01 10:12 | 59.70148 | 11.71381 | 25532 ft | 435 kts | 155° |
| 2026-05-01 10:13 | 59.67543 | 11.74381 | 25997 ft | 437 kts | 155° |
| 2026-05-01 10:13 | 59.64887 | 11.77407 | 26450 ft | 439 kts | 157° |
| 2026-05-01 10:13 | 59.62086 | 11.79464 | 26884 ft | 431 kts | 171° |
| 2026-05-01 10:14 | 59.56200 | 11.82682 | 27613 ft | 443 kts | 168° |
| 2026-05-01 10:14 | 59.53236 | 11.84358 | 28102 ft | 444 kts | 168° |
| 2026-05-01 10:14 | 59.50297 | 11.86013 | 28515 ft | 447 kts | 168° |
| 2026-05-01 10:14 | 59.47293 | 11.87701 | 28946 ft | 450 kts | 168° |
| 2026-05-01 10:15 | 59.44249 | 11.89409 | 29358 ft | 453 kts | 168° |
| 2026-05-01 10:15 | 59.41234 | 11.91096 | 29738 ft | 456 kts | 168° |
| 2026-05-01 10:15 | 59.38159 | 11.92815 | 30158 ft | 458 kts | 168° |
| 2026-05-01 10:15 | 59.35107 | 11.94518 | 30515 ft | 461 kts | 168° |
| 2026-05-01 10:16 | 59.31960 | 11.95657 | 30802 ft | 455 kts | 182° |
| 2026-05-01 10:16 | 59.28803 | 11.95309 | 31132 ft | 453 kts | 188° |
| 2026-05-01 10:16 | 59.22488 | 11.94588 | 31259 ft | 456 kts | 187° |
| 2026-05-01 10:17 | 59.19310 | 11.94245 | 31264 ft | 456 kts | 187° |
| 2026-05-01 10:17 | 59.09819 | 11.93223 | 31278 ft | 456 kts | 187° |
| 2026-05-01 10:18 | 59.00337 | 11.92205 | 31276 ft | 456 kts | 187° |
| 2026-05-01 10:19 | 58.94023 | 11.91525 | 31275 ft | 455 kts | 187° |
| 2026-05-01 10:19 | 58.87687 | 11.90845 | 31294 ft | 456 kts | 187° |
| 2026-05-01 10:20 | 58.81364 | 11.90207 | 31451 ft | 459 kts | 184° |
| 2026-05-01 10:20 | 58.78160 | 11.90884 | 31892 ft | 464 kts | 174° |
| 2026-05-01 10:20 | 58.74962 | 11.91816 | 32136 ft | 467 kts | 175° |
| 2026-05-01 10:20 | 58.71724 | 11.92694 | 32430 ft | 469 kts | 175° |
| 2026-05-01 10:21 | 58.68520 | 11.93565 | 32740 ft | 471 kts | 175° |
| 2026-05-01 10:21 | 58.61973 | 11.95339 | 33227 ft | 476 kts | 175° |
| 2026-05-01 10:21 | 58.58683 | 11.96228 | 33465 ft | 477 kts | 175° |
| 2026-05-01 10:22 | 58.52182 | 11.97950 | 34491 ft | 467 kts | 175° |
| 2026-05-01 10:22 | 58.45890 | 11.99565 | 35996 ft | 445 kts | 175° |
| 2026-05-01 10:23 | 58.42857 | 12.00315 | 36875 ft | 430 kts | 175° |
| 2026-05-01 10:23 | 58.37125 | 12.01641 | 38527 ft | 402 kts | 176° |
| 2026-05-01 10:23 | 58.34378 | 12.02220 | 39141 ft | 390 kts | 177° |
| 2026-05-01 10:24 | 58.29086 | 12.03149 | 39723 ft | 378 kts | 179° |
| 2026-05-01 10:24 | 58.23826 | 12.03818 | 39774 ft | 380 kts | 180° |
| 2026-05-01 10:25 | 58.18458 | 12.04234 | 39500 ft | 393 kts | 181° |
| 2026-05-01 10:25 | 58.12873 | 12.04436 | 39169 ft | 410 kts | 182° |
| 2026-05-01 10:26 | 58.10018 | 12.04466 | 39018 ft | 418 kts | 183° |
| 2026-05-01 10:26 | 58.07071 | 12.04441 | 38915 ft | 425 kts | 184° |
| 2026-05-01 10:26 | 58.01082 | 12.04225 | 38905 ft | 436 kts | 185° |
| 2026-05-01 10:27 | 57.95012 | 12.03721 | 39147 ft | 439 kts | 186° |
| 2026-05-01 10:27 | 57.88920 | 12.02830 | 39524 ft | 436 kts | 188° |
| 2026-05-01 10:28 | 57.85910 | 12.02235 | 39743 ft | 434 kts | 189° |
| 2026-05-01 10:28 | 57.79844 | 12.02938 | 39559 ft | 450 kts | 166° |
| 2026-05-01 10:28 | 57.76915 | 12.05104 | 39347 ft | 452 kts | 152° |
| 2026-05-01 10:29 | 57.69085 | 12.14954 | 39382 ft | 457 kts | 148° |
| 2026-05-01 10:30 | 57.58387 | 12.27999 | 39370 ft | 459 kts | 148° |
| 2026-05-01 10:31 | 57.47740 | 12.40896 | 39368 ft | 456 kts | 148° |
| 2026-05-01 10:32 | 57.39749 | 12.50515 | 39372 ft | 456 kts | 148° |
| 2026-05-01 10:33 | 57.29093 | 12.63265 | 39375 ft | 458 kts | 148° |
| 2026-05-01 10:34 | 57.21062 | 12.72811 | 39372 ft | 458 kts | 148° |
| 2026-05-01 10:34 | 57.15727 | 12.79127 | 39382 ft | 457 kts | 148° |
| 2026-05-01 10:35 | 57.07705 | 12.88583 | 39371 ft | 458 kts | 148° |
| 2026-05-01 10:35 | 57.02298 | 12.94928 | 39375 ft | 460 kts | 148° |
| 2026-05-01 10:36 | 56.94226 | 13.04360 | 39382 ft | 457 kts | 147° |
| 2026-05-01 10:37 | 56.88860 | 13.10603 | 39397 ft | 461 kts | 148° |
| 2026-05-01 10:37 | 56.80692 | 13.20062 | 39377 ft | 463 kts | 148° |
| 2026-05-01 10:38 | 56.75238 | 13.26351 | 39383 ft | 463 kts | 148° |
| 2026-05-01 10:38 | 56.69834 | 13.32563 | 39382 ft | 462 kts | 148° |
| 2026-05-01 10:39 | 56.64399 | 13.38788 | 39375 ft | 459 kts | 148° |
| 2026-05-01 10:39 | 56.58995 | 13.44956 | 39391 ft | 459 kts | 148° |
| 2026-05-01 10:40 | 56.53579 | 13.51116 | 39391 ft | 464 kts | 148° |
| 2026-05-01 10:40 | 56.49032 | 13.56272 | 39372 ft | 460 kts | 148° |
| 2026-05-01 10:41 | 56.43605 | 13.62407 | 39377 ft | 461 kts | 148° |
| 2026-05-01 10:42 | 56.35419 | 13.71620 | 39378 ft | 461 kts | 148° |
| 2026-05-01 10:42 | 56.29749 | 13.76756 | 39424 ft | 459 kts | 155° |
| 2026-05-01 10:43 | 56.23929 | 13.81605 | 39366 ft | 458 kts | 155° |
| 2026-05-01 10:43 | 56.18126 | 13.86415 | 39365 ft | 462 kts | 155° |
| 2026-05-01 10:44 | 56.12296 | 13.91231 | 39368 ft | 462 kts | 155° |
| 2026-05-01 10:44 | 56.06484 | 13.96016 | 39368 ft | 461 kts | 155° |
| 2026-05-01 10:45 | 56.00638 | 14.00813 | 39362 ft | 462 kts | 155° |
| 2026-05-01 10:45 | 55.94815 | 14.05575 | 39366 ft | 462 kts | 155° |
| 2026-05-01 10:46 | 55.88968 | 14.10341 | 39346 ft | 461 kts | 155° |
| 2026-05-01 10:46 | 55.83131 | 14.15083 | 39345 ft | 464 kts | 155° |
| 2026-05-01 10:47 | 55.77259 | 14.19836 | 39373 ft | 464 kts | 155° |
| 2026-05-01 10:47 | 55.71388 | 14.24574 | 39357 ft | 462 kts | 155° |
| 2026-05-01 10:48 | 55.65549 | 14.29271 | 39361 ft | 462 kts | 155° |
| 2026-05-01 10:48 | 55.59714 | 14.33949 | 39365 ft | 462 kts | 155° |
| 2026-05-01 10:49 | 55.53832 | 14.38649 | 39370 ft | 462 kts | 155° |
| 2026-05-01 10:49 | 55.47993 | 14.43299 | 39370 ft | 462 kts | 155° |
| 2026-05-01 10:50 | 55.42145 | 14.47941 | 39370 ft | 462 kts | 155° |
| 2026-05-01 10:50 | 55.36277 | 14.52585 | 39375 ft | 461 kts | 155° |
| 2026-05-01 10:51 | 55.30426 | 14.57200 | 39379 ft | 464 kts | 155° |
| 2026-05-01 10:51 | 55.24507 | 14.61853 | 39373 ft | 464 kts | 155° |
| 2026-05-01 10:52 | 55.18647 | 14.66444 | 39373 ft | 464 kts | 155° |
| 2026-05-01 10:52 | 55.12763 | 14.71042 | 39377 ft | 464 kts | 155° |
| 2026-05-01 10:53 | 55.06941 | 14.75934 | 39335 ft | 462 kts | 143° |
| 2026-05-01 10:53 | 55.04598 | 14.79637 | 39354 ft | 456 kts | 128° |
| 2026-05-01 10:53 | 55.02506 | 14.83829 | 39365 ft | 459 kts | 131° |
| 2026-05-01 10:54 | 54.98207 | 14.92040 | 39388 ft | 461 kts | 130° |
| 2026-05-01 10:54 | 54.93906 | 15.00313 | 39385 ft | 461 kts | 130° |
| 2026-05-01 10:55 | 54.89599 | 15.08575 | 39385 ft | 461 kts | 130° |
| 2026-05-01 10:55 | 54.85264 | 15.16860 | 39384 ft | 461 kts | 131° |
| 2026-05-01 10:56 | 54.80962 | 15.25056 | 39391 ft | 461 kts | 130° |
| 2026-05-01 10:56 | 54.76633 | 15.33271 | 39402 ft | 461 kts | 130° |
| 2026-05-01 10:57 | 54.72290 | 15.41487 | 39385 ft | 462 kts | 130° |
| 2026-05-01 10:57 | 54.67959 | 15.49652 | 39398 ft | 462 kts | 130° |
| 2026-05-01 10:58 | 54.63630 | 15.57786 | 39392 ft | 462 kts | 130° |
| 2026-05-01 10:58 | 54.59121 | 15.65739 | 39400 ft | 462 kts | 136° |
| 2026-05-01 10:59 | 54.54358 | 15.73207 | 39401 ft | 463 kts | 136° |
| 2026-05-01 10:59 | 54.49595 | 15.80635 | 39401 ft | 463 kts | 136° |
| 2026-05-01 11:00 | 54.44830 | 15.88041 | 39396 ft | 463 kts | 136° |
| 2026-05-01 11:00 | 54.40029 | 15.95479 | 39403 ft | 464 kts | 136° |
| 2026-05-01 11:01 | 54.35241 | 16.02871 | 39403 ft | 464 kts | 136° |
| 2026-05-01 11:01 | 54.30456 | 16.10236 | 39400 ft | 463 kts | 136° |
| 2026-05-01 11:02 | 54.25637 | 16.17628 | 39402 ft | 464 kts | 136° |
| 2026-05-01 11:02 | 54.20831 | 16.24977 | 39403 ft | 465 kts | 136° |
| 2026-05-01 11:03 | 54.16019 | 16.32311 | 39394 ft | 465 kts | 136° |
| 2026-05-01 11:03 | 54.11178 | 16.39664 | 39396 ft | 465 kts | 136° |
| 2026-05-01 11:04 | 54.06346 | 16.46979 | 39380 ft | 465 kts | 136° |
| 2026-05-01 11:04 | 54.01517 | 16.54268 | 39406 ft | 465 kts | 136° |
| 2026-05-01 11:05 | 53.96650 | 16.61589 | 39378 ft | 466 kts | 136° |
| 2026-05-01 11:05 | 53.91798 | 16.68864 | 39376 ft | 466 kts | 136° |
| 2026-05-01 11:06 | 53.86947 | 16.76116 | 39371 ft | 466 kts | 136° |
| 2026-05-01 11:06 | 53.82083 | 16.83362 | 39370 ft | 466 kts | 136° |
| 2026-05-01 11:07 | 53.74808 | 16.94161 | 39378 ft | 465 kts | 136° |
| 2026-05-01 11:07 | 53.69950 | 17.01341 | 39363 ft | 465 kts | 136° |
| 2026-05-01 11:08 | 53.65071 | 17.08536 | 39357 ft | 465 kts | 136° |
| 2026-05-01 11:09 | 53.57755 | 17.19282 | 39357 ft | 465 kts | 136° |
| 2026-05-01 11:09 | 53.52892 | 17.26398 | 39356 ft | 465 kts | 136° |
| 2026-05-01 11:10 | 53.45586 | 17.37046 | 39358 ft | 464 kts | 136° |
| 2026-05-01 11:10 | 53.40719 | 17.44113 | 39358 ft | 463 kts | 136° |
| 2026-05-01 11:11 | 53.35847 | 17.51164 | 39357 ft | 464 kts | 136° |
| 2026-05-01 11:11 | 53.30966 | 17.58206 | 39354 ft | 464 kts | 136° |
| 2026-05-01 11:12 | 53.26056 | 17.65265 | 39353 ft | 464 kts | 136° |
| 2026-05-01 11:12 | 53.21173 | 17.72267 | 39357 ft | 464 kts | 136° |
| 2026-05-01 11:13 | 53.16262 | 17.79285 | 39356 ft | 464 kts | 136° |
| 2026-05-01 11:13 | 53.11369 | 17.86256 | 39346 ft | 463 kts | 136° |
| 2026-05-01 11:14 | 53.06489 | 17.93188 | 39347 ft | 463 kts | 136° |
| 2026-05-01 11:14 | 53.01584 | 18.00133 | 39346 ft | 463 kts | 136° |
| 2026-05-01 11:15 | 52.96668 | 18.07071 | 39356 ft | 463 kts | 136° |
| 2026-05-01 11:15 | 52.91772 | 18.13961 | 39347 ft | 464 kts | 136° |
| 2026-05-01 11:16 | 52.86838 | 18.20883 | 39359 ft | 464 kts | 136° |
| 2026-05-01 11:16 | 52.81926 | 18.27753 | 39354 ft | 464 kts | 136° |
| 2026-05-01 11:17 | 52.77013 | 18.34601 | 39351 ft | 463 kts | 136° |
| 2026-05-01 11:17 | 52.72075 | 18.41465 | 39365 ft | 463 kts | 136° |
| 2026-05-01 11:18 | 52.67147 | 18.48297 | 39353 ft | 463 kts | 136° |
| 2026-05-01 11:18 | 52.62222 | 18.55106 | 39348 ft | 464 kts | 136° |
| 2026-05-01 11:19 | 52.57271 | 18.61916 | 39348 ft | 464 kts | 136° |
| 2026-05-01 11:19 | 52.52311 | 18.68725 | 39342 ft | 464 kts | 136° |
| 2026-05-01 11:20 | 52.47376 | 18.75477 | 39364 ft | 463 kts | 135° |
| 2026-05-01 11:20 | 52.42404 | 18.82261 | 39343 ft | 463 kts | 135° |
| 2026-05-01 11:21 | 52.37474 | 18.88967 | 39342 ft | 463 kts | 135° |
| 2026-05-01 11:21 | 52.32506 | 18.95705 | 39340 ft | 463 kts | 136° |
| 2026-05-01 11:22 | 52.27572 | 19.02366 | 39340 ft | 463 kts | 136° |
| 2026-05-01 11:22 | 52.22589 | 19.09075 | 39359 ft | 463 kts | 135° |
| 2026-05-01 11:23 | 52.17621 | 19.15746 | 39341 ft | 464 kts | 135° |
| 2026-05-01 11:23 | 52.12624 | 19.22433 | 39327 ft | 463 kts | 135° |
| 2026-05-01 11:24 | 52.07649 | 19.29072 | 39329 ft | 463 kts | 135° |
| 2026-05-01 11:25 | 52.00175 | 19.39008 | 39333 ft | 463 kts | 136° |
| 2026-05-01 11:25 | 51.92683 | 19.48924 | 39332 ft | 463 kts | 136° |
| 2026-05-01 11:26 | 51.85182 | 19.58809 | 39334 ft | 463 kts | 136° |
| 2026-05-01 11:27 | 51.80105 | 19.65181 | 39300 ft | 469 kts | 146° |
| 2026-05-01 11:27 | 51.77078 | 19.67225 | 39322 ft | 473 kts | 160° |
| 2026-05-01 11:27 | 51.73944 | 19.68781 | 39322 ft | 476 kts | 157° |
| 2026-05-01 11:28 | 51.68716 | 19.71583 | 39343 ft | 476 kts | 158° |
| 2026-05-01 11:28 | 51.61367 | 19.75449 | 39046 ft | 472 kts | 158° |
| 2026-05-01 11:29 | 51.55098 | 19.78734 | 37381 ft | 476 kts | 157° |
| 2026-05-01 11:29 | 51.52972 | 19.79846 | 36853 ft | 477 kts | 157° |
| 2026-05-01 11:29 | 51.46646 | 19.83164 | 35293 ft | 482 kts | 157° |
| 2026-05-01 11:30 | 51.43472 | 19.84822 | 34515 ft | 484 kts | 156° |
| 2026-05-01 11:30 | 51.40243 | 19.86502 | 33650 ft | 487 kts | 156° |
| 2026-05-01 11:30 | 51.37011 | 19.88182 | 32801 ft | 488 kts | 156° |
| 2026-05-01 11:30 | 51.33774 | 19.89864 | 31964 ft | 488 kts | 156° |
| 2026-05-01 11:31 | 51.30584 | 19.91520 | 31072 ft | 487 kts | 156° |
| 2026-05-01 11:31 | 51.27365 | 19.93189 | 30157 ft | 487 kts | 156° |
| 2026-05-01 11:31 | 51.24135 | 19.94862 | 29054 ft | 487 kts | 156° |
| 2026-05-01 11:31 | 51.20893 | 19.96534 | 27886 ft | 489 kts | 156° |
| 2026-05-01 11:32 | 51.17644 | 19.98206 | 26705 ft | 491 kts | 156° |
| 2026-05-01 11:32 | 51.14373 | 19.99887 | 25522 ft | 495 kts | 156° |
| 2026-05-01 11:32 | 51.11129 | 20.01551 | 24571 ft | 496 kts | 156° |
| 2026-05-01 11:32 | 51.07867 | 20.03220 | 23762 ft | 481 kts | 156° |
| 2026-05-01 11:33 | 51.04715 | 20.04833 | 22515 ft | 471 kts | 156° |
| 2026-05-01 11:33 | 51.01643 | 20.06402 | 21387 ft | 462 kts | 156° |
| 2026-05-01 11:33 | 50.98608 | 20.07950 | 20445 ft | 451 kts | 156° |
| 2026-05-01 11:33 | 50.95657 | 20.09453 | 19662 ft | 437 kts | 156° |
| 2026-05-01 11:34 | 50.92801 | 20.10754 | 18923 ft | 430 kts | 165° |
| 2026-05-01 11:34 | 50.89814 | 20.10871 | 18131 ft | 430 kts | 184° |
| 2026-05-01 11:34 | 50.86922 | 20.09602 | 17315 ft | 426 kts | 200° |
| 2026-05-01 11:34 | 50.84172 | 20.08000 | 16507 ft | 419 kts | 197° |
| 2026-05-01 11:35 | 50.81449 | 20.06558 | 15727 ft | 414 kts | 194° |
| 2026-05-01 11:35 | 50.78640 | 20.05922 | 14969 ft | 402 kts | 177° |
| 2026-05-01 11:35 | 50.75851 | 20.05829 | 14299 ft | 399 kts | 178° |
| 2026-05-01 11:35 | 50.73061 | 20.05694 | 13530 ft | 402 kts | 178° |
| 2026-05-01 11:36 | 50.70301 | 20.05562 | 12801 ft | 397 kts | 179° |
| 2026-05-01 11:36 | 50.67574 | 20.05433 | 12135 ft | 387 kts | 179° |
| 2026-05-01 11:36 | 50.64893 | 20.05306 | 11640 ft | 382 kts | 179° |
| 2026-05-01 11:36 | 50.62243 | 20.05179 | 11164 ft | 379 kts | 179° |
| 2026-05-01 11:37 | 50.59647 | 20.05056 | 10704 ft | 376 kts | 179° |
| 2026-05-01 11:37 | 50.57043 | 20.04934 | 10274 ft | 372 kts | 180° |
| 2026-05-01 11:37 | 50.54466 | 20.04811 | 9776 ft | 369 kts | 180° |
| 2026-05-01 11:37 | 50.51913 | 20.04691 | 9390 ft | 365 kts | 180° |
| 2026-05-01 11:38 | 50.49380 | 20.04572 | 9308 ft | 364 kts | 180° |
| 2026-05-01 11:38 | 50.46843 | 20.04452 | 9317 ft | 364 kts | 180° |
| 2026-05-01 11:38 | 50.44304 | 20.04316 | 9314 ft | 364 kts | 180° |
| 2026-05-01 11:38 | 50.41765 | 20.04168 | 9317 ft | 364 kts | 180° |
| 2026-05-01 11:39 | 50.39232 | 20.04020 | 9255 ft | 361 kts | 180° |
| 2026-05-01 11:39 | 50.36815 | 20.03878 | 8951 ft | 343 kts | 180° |
| 2026-05-01 11:39 | 50.34525 | 20.04330 | 8575 ft | 324 kts | 157° |
| 2026-05-01 11:39 | 50.32615 | 20.05967 | 8254 ft | 304 kts | 142° |
| 2026-05-01 11:40 | 50.30809 | 20.07569 | 7953 ft | 293 kts | 149° |
| 2026-05-01 11:40 | 50.29033 | 20.09014 | 7634 ft | 283 kts | 149° |
| 2026-05-01 11:40 | 50.27321 | 20.10426 | 7318 ft | 274 kts | 149° |
| 2026-05-01 11:40 | 50.25665 | 20.11803 | 6999 ft | 266 kts | 149° |
| 2026-05-01 11:41 | 50.24079 | 20.13127 | 6682 ft | 259 kts | 149° |
| 2026-05-01 11:41 | 50.22502 | 20.14446 | 6365 ft | 255 kts | 150° |
| 2026-05-01 11:41 | 50.20944 | 20.15751 | 6040 ft | 253 kts | 150° |
| 2026-05-01 11:41 | 50.19412 | 20.17031 | 5762 ft | 248 kts | 151° |
| 2026-05-01 11:42 | 50.17912 | 20.18287 | 5571 ft | 244 kts | 151° |
| 2026-05-01 11:42 | 50.16312 | 20.19188 | 5171 ft | 247 kts | 177° |
| 2026-05-01 11:42 | 50.14672 | 20.18706 | 4812 ft | 238 kts | 212° |
| 2026-05-01 11:42 | 50.13494 | 20.17026 | 4526 ft | 225 kts | 242° |
| 2026-05-01 11:43 | 50.12946 | 20.14821 | 4304 ft | 214 kts | 258° |
| 2026-05-01 11:43 | 50.12582 | 20.12594 | 4094 ft | 211 kts | 259° |
| 2026-05-01 11:43 | 50.12242 | 20.10403 | 3954 ft | 204 kts | 259° |
| 2026-05-01 11:44 | 50.11643 | 20.06298 | 3904 ft | 192 kts | 260° |
| 2026-05-01 11:44 | 50.11359 | 20.04280 | 3706 ft | 194 kts | 261° |
| 2026-05-01 11:44 | 50.11074 | 20.02238 | 3576 ft | 190 kts | 261° |
| 2026-05-01 11:44 | 50.10795 | 20.00234 | 3364 ft | 188 kts | 261° |
| 2026-05-01 11:45 | 50.10518 | 19.98245 | 3126 ft | 186 kts | 262° |
| 2026-05-01 11:45 | 50.10251 | 19.96309 | 2925 ft | 177 kts | 260° |
| 2026-05-01 11:45 | 50.10000 | 19.94515 | 2687 ft | 162 kts | 261° |
| 2026-05-01 11:45 | 50.09771 | 19.92880 | 2464 ft | 146 kts | 262° |
| 2026-05-01 11:46 | 50.09565 | 19.91379 | 2284 ft | 140 kts | 262° |
| 2026-05-01 11:46 | 50.09360 | 19.89902 | 2084 ft | 140 kts | 262° |
| 2026-05-01 11:46 | 50.09158 | 19.88454 | 1912 ft | 136 kts | 262° |
| 2026-05-01 11:46 | 50.08962 | 19.87023 | 1699 ft | 134 kts | 259° |
| 2026-05-01 11:47 | 50.08770 | 19.85618 | 1555 ft | 131 kts | 257° |
| 2026-05-01 11:47 | 50.08579 | 19.84245 | 1411 ft | 129 kts | 258° |
| 2026-05-01 11:47 | 50.08386 | 19.82885 | 1226 ft | 127 kts | 256° |
| 2026-05-01 11:47 | 50.08190 | 19.81545 | 1044 ft | 127 kts | 258° |
| 2026-05-01 11:48 | 50.08012 | 19.80199 | 873 ft | 126 kts | 257° |
| 2026-05-01 11:48 | 50.07833 | 19.78915 | 806 ft | 110 kts | 258° |
| 2026-05-01 11:48 | 50.07712 | 19.78116 | 801 ft | 18 kts | 226° |
| 2026-05-01 11:48 | 50.07597 | 19.78089 | 802 ft | 19 kts | 182° |
| 2026-05-01 11:49 | 50.07496 | 19.78086 | 802 ft | 12 kts | 162° |
| 2026-05-01 11:49 | 50.07485 | 19.78233 | 802 ft | 17 kts | 77° |
| 2026-05-01 11:49 | 50.07510 | 19.78417 | 802 ft | 19 kts | 78° |
| 2026-05-01 11:49 | 50.07531 | 19.78564 | 802 ft | 14 kts | 77° |
| 2026-05-01 11:50 | 50.07552 | 19.78715 | 802 ft | 13 kts | 78° |
| 2026-05-01 11:50 | 50.07573 | 19.78868 | 802 ft | 16 kts | 77° |
| 2026-05-01 11:50 | 50.07595 | 19.79025 | 802 ft | 13 kts | 78° |
| 2026-05-01 11:50 | 50.07616 | 19.79174 | 802 ft | 15 kts | 78° |
| 2026-05-01 11:51 | 50.07639 | 19.79343 | 802 ft | 16 kts | 78° |
| 2026-05-01 11:51 | 50.07664 | 19.79518 | 802 ft | 17 kts | 78° |
| 2026-05-01 11:51 | 50.07676 | 19.79671 | 802 ft | 11 kts | 116° |
| 2026-05-01 11:51 | 50.07597 | 19.79716 | 802 ft | 13 kts | 168° |
| 2026-05-01 11:52 | 50.07500 | 19.79748 | 802 ft | 13 kts | 168° |
| 2026-05-01 11:52 | 50.07404 | 19.79780 | 802 ft | 14 kts | 162° |
| 2026-05-01 11:52 | 50.07347 | 19.79857 | 802 ft | 12 kts | 143° |
| 2026-05-01 11:52 | 50.07308 | 19.79881 | 802 ft | 3 kts | 166° |
| 2026-05-01 11:53 | 50.07298 | 19.79884 | 802 ft | 0 kts | 167° |
| 2026-05-01 11:53 | 50.07298 | 19.79885 | 802 ft | 0 kts | 167° |